Marco Gutierrez

Ojeador - Atlas
3 Dic 2028
Domingo
Continuar

Personalidad

Adaptabilidad (7) Ambición (7) Controversia (1) Lealtad (7) Presión (5) Profesionalismo (16) Deportividad (2) Temperamento (2)

Perfil

Estilo de dirección Democrático
Licencia Nacional A
Determinación 13
Gestión de personas 13
Motivación 5
Disciplina 10
Satisfacción laboral
100%
Fatiga
0%
Cargo Ojeador
Salario 59.2K p/s
Contrato 14.03.2029

Rendimiento

Comportamiento Bueno
Efectividad del entrenamiento
52%
Desarrollo de jugadores
20%
Prevención de lesiones
35%
Implementación táctica
45%

Eventos recientes

Evaluó a un jugador ahora
Asistió a una reunión de captación ahora
Recomendó un objetivo de fichaje ahora
Asistió a una reunión de captación ahora
Asistió a una reunión de captación 7d atrás
Evaluó a un jugador 7d atrás
Evaluó a un jugador 7d atrás
Evaluó a un jugador 7d atrás

Actualmente siguiendo

96
Jugador Club Estado Habilidad Confianza Observado Última observación Último voto
Matias Siltanen Malmo FF Activo 138 / 141 40% 6 30.11.2028 -
Mateo Faure BATE Activo 102 / 96 40% 6 30.11.2028 -
Roberto Medina La Equidad Activo 82 / 92 40% 2 28.11.2028 -
Martín Jiménez Iquique Activo 102 / 98 40% 5 27.11.2028 -
Chris Rigg West Ham United Activo 147 / 146 40% 2 26.11.2028 -
Aytor Herrera Mineros de Guayana Activo 80 / 91 40% 4 25.11.2028 -
Matías Magdaleno Estudiantes Activo 98 / 123 40% 1 25.11.2028 -
Christos Mouzakitis Hull City Activo 149 / 150 40% 5 24.11.2028 -
Luis Otávio Orlando City Activo 112 / 135 40% 3 24.11.2028 -
Felipe Varela Trujillanos Activo 99 / 88 40% 2 20.11.2028 -
Francisco Machis Llaneros Activo 88 / 109 40% 2 19.11.2028 -
Buba Sangaré Elche Activo 137 / 129 40% 4 17.11.2028 -
Tiago Gordillo San Miguel Activo 101 / 101 40% 2 17.11.2028 -
Samuel Molano Patriotas Activo 97 / 94 40% 1 16.11.2028 -
Celías Ingenthron Platense Activo 114 / 141 40% 4 15.11.2028 -
Máximo Munarriz San Telmo Activo 101 / 92 40% 3 15.11.2028 -
Diego León Rotherham United Activo 120 / 123 40% 1 14.11.2028 -
Davinchi Getafe Activo 129 / 140 40% 1 13.11.2028 -
Peyton Miller New England Revolution Activo 119 / 117 40% 4 11.11.2028 -
Jorge Salinas Racing Santander Activo 131 / 134 40% 1 11.11.2028 -
Alejandro Almaraz NK Celje Activo 132 / 139 40% 1 10.11.2028 -
Joel Ezra Enyimba Activo 83 / 87 40% 2 08.11.2028 -
Sebastian Rodriguez Houston Dynamo Activo 128 / 114 40% 2 07.11.2028 -
Anderson Acevedo Bogota Activo 92 / 113 40% 1 07.11.2028 -
Jan Cedilnik Chikhura Activo 85 / 74 40% 2 06.11.2028 -
Honest Ahanor Atalanta Activo 144 / 154 40% 7 05.11.2028 -
Tyler Fletcher Rotherham United Activo 108 / 134 40% 2 05.11.2028 -
Harrison Armstrong Ipswich Town Activo 149 / 145 40% 2 04.11.2028 -
Facundo Balatti Penarol Activo 119 / 126 40% 1 02.11.2028 -
Ayyoub Bouaddi Stoke City Activo 156 / 160 40% 1 31.10.2028 -
Tobías Ramírez River Plate Activo 118 / 131 40% 3 29.10.2028 -
Luis Maturana Alianza Petrolera Activo 94 / 88 40% 3 29.10.2028 -
Óscar Hinojosa Metropolitanos Activo 78 / 94 40% 2 25.10.2028 -
Alejandro Tapia Central Norte Activo 76 / 86 40% 2 22.10.2028 -
Mauro Matorras Central Norte Activo 77 / 111 40% 2 19.10.2028 -
Gideon Manaseh Ikorodu City Activo 92 / 109 40% 1 18.10.2028 -
Máximo Magnoli Ferro Carril Oeste Activo 81 / 103 40% 1 14.10.2028 -
Estanislao López Colón Activo 98 / 84 40% 1 11.10.2028 -
Giovanni Leoni Lincoln City Activo 149 / 163 40% 5 09.10.2028 -
Mateo Caballero Defensor Sporting Activo 118 / 97 40% 1 07.10.2028 -
Konta Ismaily Activo 87 / 93 40% 2 20.06.2028 -
Lucas Varaldo Morelia Activo 127 / 110 58% 1 01.06.2028 Aprobar
Trey Nyoni Rotherham United Activo 144 / 140 40% 1 01.06.2028 -
Bernardo Lima Porto Activo 103 / 126 40% 1 29.05.2028 -
Andrea Cogoni Cosenza Activo 107 / 126 40% 1 29.05.2028 -
Martim Cunha Porto Activo 115 / 123 40% 4 28.05.2028 -
Josh Nichols Oldham Athletic Activo 114 / 121 40% 2 28.05.2028 -
Riquelme Thompson-Jones Accrington Stanley Activo 108 / 103 40% 4 26.05.2028 -
Daniel Banjaqui Benfica Activo 131 / 126 40% 2 25.05.2028 -
Jorthy Mokio ADO Den Haag Activo 140 / 141 40% 3 24.05.2028 -
Simone Suppa Virtus Verona Activo 94 / 83 40% 3 20.05.2028 -
Ayden Heaven Portsmouth Activo 139 / 142 40% 3 15.05.2028 -
Lucas Høgsberg RC Strasbourg Activo 134 / 139 40% 6 04.05.2028 -
Héctor Fort Real Sociedad Activo 141 / 153 40% 1 03.05.2028 -
Musa Danjuma Umraniyespor Activo 93 / 110 40% 1 30.04.2028 -
Josh Acheampong Everton Activo 142 / 143 40% 2 27.04.2028 -
Pape Diong Westerlo Activo 118 / 136 40% 2 24.04.2028 -
Gustavo Albarracín Alavés Activo 123 / 122 40% 1 16.04.2028 -
Edwin Cerrillo Club America Negociando 128 / 104 55% 1 17.01.2028 Observar
Marco Farfan Tigres Activo 128 / 124 55% 1 01.01.2028 -
Uziel García Morelia Activo 119 / 113 55% 1 01.06.2027 -
Eliás Montiel Borussia Dortmund Activo 130 / 145 40% 2 31.05.2027 -
Riley Owen Stevenage Activo 94 / 114 40% 1 30.05.2027 -
Caleb Yirenkyi Coventry City Activo 125 / 127 40% 4 24.05.2027 -
Tiago Freitas Benfica Activo 116 / 105 40% 2 22.05.2027 -
Kazunari Kita Real Sociedad Activo 103 / 116 40% 2 20.05.2027 -
Charlie Gray Fleetwood Town Activo 92 / 97 40% 1 20.05.2027 -
Tommaso Cecotti Carpi Activo 96 / 103 40% 2 13.05.2027 -
Zane Albarus Shrewsbury Town Activo 102 / 97 40% 2 13.05.2027 -
Sascha Britschgi AC Milan Activo 131 / 121 40% 1 11.05.2027 -
Edwin Asamoah Berekum Chelsea Activo 96 / 92 40% 1 05.05.2027 -
Victor Hernandez Santa Fe Activo 114 / 138 40% 1 29.04.2027 -
Lucas Agazzi Villarreal Activo 126 / 125 40% 1 25.04.2027 -
Henrique Silva Santa Clara Activo 97 / 126 40% 2 19.04.2027 -
Jenson Jones Walsall Activo 93 / 109 40% 3 16.04.2027 -
James Dornelly Peterborough United Activo 96 / 115 40% 1 06.04.2027 -
Louis Leroux FC Nantes Activo 126 / 137 40% 1 29.03.2027 -
Olivier Leroux Mouscron Activo 95 / 101 40% 1 28.03.2027 -
Joaquin Seys Club Brugge Activo 137 / 141 40% 1 15.03.2027 -
Rivaldo Mkhize Black Aces Activo 83 / 76 40% 1 04.03.2027 -
Leandro Martins Benfica Activo 97 / 101 40% 1 01.03.2027 -
Brooke Norton-Cuffy Hull City Activo 145 / 149 40% 1 31.12.2026 -
Dara O'Shea Ipswich Town Activo 147 / 129 40% 1 31.12.2026 -
Santiago González Tigre Activo 111 / 116 40% 1 25.12.2026 -
Facundo Miño Deportivo Riestra Activo 123 / 129 40% 1 25.12.2026 -
Toby Collyer West Bromwich Albion Activo 117 / 123 40% 1 23.12.2026 -
Omar Campos Cruz Azul Activo 134 / 120 40% 1 22.12.2026 -
Gastón Benedetti Estudiantes Activo 134 / 146 40% 1 22.12.2026 -
Marco Pellegrino Boca Juniors Activo 127 / 134 40% 1 19.12.2026 -
Pedro Ramírez Deportivo Riestra Activo 132 / 101 40% 1 18.12.2026 -
Welington Southampton Activo 118 / 140 40% 1 18.12.2026 -
Ramón Juárez Club America Activo 142 / 139 40% 1 16.12.2026 -
Aarón Mejía Tijuana Activo 122 / 114 40% 1 08.12.2026 -
Alejandro Gómez Tijuana Activo 131 / 122 40% 1 08.12.2026 -
Víctor Machado Zorya Activo 85 / 95 40% 1 06.10.2026 -
Youssoufa Moukoko FC Copenhagen Activo 126 / 108 40% 1 06.10.2026 -